sensor_id;sensor_type;location;lat;lon;timestamp;temperature;humidity
16521;DHT22;8373;48.110;11.522;2023-07-08T00:00:17;23.00;47.20
16521;DHT22;8373;48.110;11.522;2023-07-08T00:02:46;23.00;46.80
16521;DHT22;8373;48.110;11.522;2023-07-08T00:05:15;22.90;46.60
16521;DHT22;8373;48.110;11.522;2023-07-08T00:07:43;22.80;46.60
16521;DHT22;8373;48.110;11.522;2023-07-08T00:10:15;22.70;47.00
16521;DHT22;8373;48.110;11.522;2023-07-08T00:12:45;22.60;47.70
16521;DHT22;8373;48.110;11.522;2023-07-08T00:15:13;22.60;47.90
16521;DHT22;8373;48.110;11.522;2023-07-08T00:17:41;22.60;47.20
16521;DHT22;8373;48.110;11.522;2023-07-08T00:20:12;22.70;47.20
16521;DHT22;8373;48.110;11.522;2023-07-08T00:22:41;22.60;47.10
16521;DHT22;8373;48.110;11.522;2023-07-08T00:25:09;22.60;47.30
16521;DHT22;8373;48.110;11.522;2023-07-08T00:27:37;22.50;47.50
16521;DHT22;8373;48.110;11.522;2023-07-08T00:30:18;22.50;47.60
16521;DHT22;8373;48.110;11.522;2023-07-08T00:32:47;22.50;47.60
16521;DHT22;8373;48.110;11.522;2023-07-08T00:35:26;22.50;47.60
16521;DHT22;8373;48.110;11.522;2023-07-08T00:37:55;22.30;48.20
16521;DHT22;8373;48.110;11.522;2023-07-08T00:40:28;22.40;48.20
16521;DHT22;8373;48.110;11.522;2023-07-08T00:42:56;22.40;48.20
16521;DHT22;8373;48.110;11.522;2023-07-08T00:45:39;22.40;48.20
16521;DHT22;8373;48.110;11.522;2023-07-08T00:48:18;22.30;48.40
16521;DHT22;8373;48.110;11.522;2023-07-08T00:50:46;22.30;48.70
16521;DHT22;8373;48.110;11.522;2023-07-08T00:53:32;22.30;48.90
16521;DHT22;8373;48.110;11.522;2023-07-08T00:56:02;22.20;49.20
16521;DHT22;8373;48.110;11.522;2023-07-08T00:58:34;22.30;49.40
16521;DHT22;8373;48.110;11.522;2023-07-08T01:01:05;22.30;49.30
16521;DHT22;8373;48.110;11.522;2023-07-08T01:03:41;22.20;49.40
16521;DHT22;8373;48.110;11.522;2023-07-08T01:06:09;22.20;49.60
16521;DHT22;8373;48.110;11.522;2023-07-08T01:08:37;22.30;49.70
16521;DHT22;8373;48.110;11.522;2023-07-08T01:11:05;22.20;49.90
16521;DHT22;8373;48.110;11.522;2023-07-08T01:13:35;22.30;49.30
16521;DHT22;8373;48.110;11.522;2023-07-08T01:16:06;22.30;48.80
16521;DHT22;8373;48.110;11.522;2023-07-08T01:18:37;22.20;48.80
16521;DHT22;8373;48.110;11.522;2023-07-08T01:21:26;22.20;48.90
16521;DHT22;8373;48.110;11.522;2023-07-08T01:23:55;22.20;49.20
16521;DHT22;8373;48.110;11.522;2023-07-08T01:26:24;22.20;49.60
16521;DHT22;8373;48.110;11.522;2023-07-08T01:28:52;22.20;49.50
16521;DHT22;8373;48.110;11.522;2023-07-08T01:31:21;22.20;49.90
16521;DHT22;8373;48.110;11.522;2023-07-08T01:33:49;22.20;50.00
16521;DHT22;8373;48.110;11.522;2023-07-08T01:36:17;22.10;50.50
16521;DHT22;8373;48.110;11.522;2023-07-08T01:38:45;22.10;50.70
16521;DHT22;8373;48.110;11.522;2023-07-08T01:41:15;22.00;50.90
16521;DHT22;8373;48.110;11.522;2023-07-08T01:43:43;22.10;51.10
16521;DHT22;8373;48.110;11.522;2023-07-08T01:46:15;22.00;51.00
16521;DHT22;8373;48.110;11.522;2023-07-08T01:48:46;21.90;50.90
16521;DHT22;8373;48.110;11.522;2023-07-08T01:51:15;21.80;51.10
16521;DHT22;8373;48.110;11.522;2023-07-08T01:53:43;21.90;50.90
16521;DHT22;8373;48.110;11.522;2023-07-08T01:56:13;21.90;50.90
16521;DHT22;8373;48.110;11.522;2023-07-08T01:58:41;21.90;50.80
16521;DHT22;8373;48.110;11.522;2023-07-08T02:01:09;21.90;50.90
16521;DHT22;8373;48.110;11.522;2023-07-08T02:03:36;22.00;51.00
16521;DHT22;8373;48.110;11.522;2023-07-08T02:06:04;22.00;50.70
16521;DHT22;8373;48.110;11.522;2023-07-08T02:08:32;21.90;51.00
16521;DHT22;8373;48.110;11.522;2023-07-08T02:10:59;21.80;51.00
16521;DHT22;8373;48.110;11.522;2023-07-08T02:13:28;21.80;51.10
16521;DHT22;8373;48.110;11.522;2023-07-08T02:15:55;21.80;51.10
16521;DHT22;8373;48.110;11.522;2023-07-08T02:18:22;21.90;50.90
16521;DHT22;8373;48.110;11.522;2023-07-08T02:20:50;21.90;50.90
16521;DHT22;8373;48.110;11.522;2023-07-08T02:23:18;21.90;50.90
16521;DHT22;8373;48.110;11.522;2023-07-08T02:25:50;21.80;51.10
16521;DHT22;8373;48.110;11.522;2023-07-08T02:28:18;21.70;51.50
16521;DHT22;8373;48.110;11.522;2023-07-08T02:30:48;21.50;52.00
16521;DHT22;8373;48.110;11.522;2023-07-08T02:33:15;21.50;52.20
16521;DHT22;8373;48.110;11.522;2023-07-08T02:35:44;21.50;52.50
16521;DHT22;8373;48.110;11.522;2023-07-08T02:38:11;21.60;53.30
16521;DHT22;8373;48.110;11.522;2023-07-08T02:40:39;21.60;52.70
16521;DHT22;8373;48.110;11.522;2023-07-08T02:43:06;21.60;52.80
16521;DHT22;8373;48.110;11.522;2023-07-08T02:45:34;21.60;52.90
16521;DHT22;8373;48.110;11.522;2023-07-08T02:48:05;21.50;53.30
16521;DHT22;8373;48.110;11.522;2023-07-08T02:50:32;21.50;53.40
16521;DHT22;8373;48.110;11.522;2023-07-08T02:52:59;21.50;53.30
16521;DHT22;8373;48.110;11.522;2023-07-08T02:55:26;21.50;53.50
16521;DHT22;8373;48.110;11.522;2023-07-08T02:57:54;21.50;54.20
16521;DHT22;8373;48.110;11.522;2023-07-08T03:00:22;21.60;53.40
16521;DHT22;8373;48.110;11.522;2023-07-08T03:02:49;21.60;53.40
16521;DHT22;8373;48.110;11.522;2023-07-08T03:05:18;21.60;53.50
16521;DHT22;8373;48.110;11.522;2023-07-08T03:07:46;21.70;53.50
16521;DHT22;8373;48.110;11.522;2023-07-08T03:10:13;21.70;53.20
16521;DHT22;8373;48.110;11.522;2023-07-08T03:12:41;21.70;53.20
16521;DHT22;8373;48.110;11.522;2023-07-08T03:15:10;21.70;53.30
16521;DHT22;8373;48.110;11.522;2023-07-08T03:17:37;21.70;53.10
16521;DHT22;8373;48.110;11.522;2023-07-08T03:20:05;21.70;53.10
16521;DHT22;8373;48.110;11.522;2023-07-08T03:22:34;21.70;53.00
16521;DHT22;8373;48.110;11.522;2023-07-08T03:25:01;21.60;53.30
16521;DHT22;8373;48.110;11.522;2023-07-08T03:27:28;21.60;53.30
16521;DHT22;8373;48.110;11.522;2023-07-08T03:29:55;21.60;53.10
16521;DHT22;8373;48.110;11.522;2023-07-08T03:32:23;21.60;53.20
16521;DHT22;8373;48.110;11.522;2023-07-08T03:34:51;21.60;53.30
16521;DHT22;8373;48.110;11.522;2023-07-08T03:37:18;21.50;53.40
16521;DHT22;8373;48.110;11.522;2023-07-08T03:39:46;21.40;53.80
16521;DHT22;8373;48.110;11.522;2023-07-08T03:42:14;21.30;54.10
16521;DHT22;8373;48.110;11.522;2023-07-08T03:44:41;21.10;54.50
16521;DHT22;8373;48.110;11.522;2023-07-08T03:47:09;21.20;54.70
16521;DHT22;8373;48.110;11.522;2023-07-08T03:49:36;21.00;55.00
16521;DHT22;8373;48.110;11.522;2023-07-08T03:52:04;21.00;55.20
16521;DHT22;8373;48.110;11.522;2023-07-08T03:54:32;21.10;55.10
16521;DHT22;8373;48.110;11.522;2023-07-08T03:57:00;21.00;55.00
16521;DHT22;8373;48.110;11.522;2023-07-08T03:59:27;20.90;55.20
16521;DHT22;8373;48.110;11.522;2023-07-08T04:01:55;20.70;55.40
16521;DHT22;8373;48.110;11.522;2023-07-08T04:04:22;20.60;55.80
16521;DHT22;8373;48.110;11.522;2023-07-08T04:06:49;20.70;56.00
16521;DHT22;8373;48.110;11.522;2023-07-08T04:09:17;20.80;55.60
16521;DHT22;8373;48.110;11.522;2023-07-08T04:11:44;20.90;55.50
16521;DHT22;8373;48.110;11.522;2023-07-08T04:14:13;20.90;55.50
16521;DHT22;8373;48.110;11.522;2023-07-08T04:16:51;21.00;55.20
16521;DHT22;8373;48.110;11.522;2023-07-08T04:19:19;21.20;54.80
16521;DHT22;8373;48.110;11.522;2023-07-08T04:21:48;21.20;54.60
16521;DHT22;8373;48.110;11.522;2023-07-08T04:24:16;21.20;54.80
16521;DHT22;8373;48.110;11.522;2023-07-08T04:26:46;21.10;55.10
16521;DHT22;8373;48.110;11.522;2023-07-08T04:29:17;21.10;55.30
16521;DHT22;8373;48.110;11.522;2023-07-08T04:31:44;21.10;55.30
16521;DHT22;8373;48.110;11.522;2023-07-08T04:34:12;21.10;55.30
16521;DHT22;8373;48.110;11.522;2023-07-08T04:36:40;21.20;55.30
16521;DHT22;8373;48.110;11.522;2023-07-08T04:39:08;21.30;55.20
16521;DHT22;8373;48.110;11.522;2023-07-08T04:41:36;21.20;54.80
16521;DHT22;8373;48.110;11.522;2023-07-08T04:44:07;21.10;55.00
16521;DHT22;8373;48.110;11.522;2023-07-08T04:46:44;21.10;55.10
16521;DHT22;8373;48.110;11.522;2023-07-08T04:49:12;21.20;55.80
16521;DHT22;8373;48.110;11.522;2023-07-08T04:51:40;21.30;55.80
16521;DHT22;8373;48.110;11.522;2023-07-08T04:54:08;21.30;55.50
16521;DHT22;8373;48.110;11.522;2023-07-08T04:56:38;21.20;55.60
16521;DHT22;8373;48.110;11.522;2023-07-08T04:59:07;21.30;56.50
16521;DHT22;8373;48.110;11.522;2023-07-08T05:01:39;21.40;56.70
16521;DHT22;8373;48.110;11.522;2023-07-08T05:04:07;21.50;56.60
16521;DHT22;8373;48.110;11.522;2023-07-08T05:06:36;21.60;56.50
16521;DHT22;8373;48.110;11.522;2023-07-08T05:09:04;21.40;57.40
16521;DHT22;8373;48.110;11.522;2023-07-08T05:11:32;21.40;56.80
16521;DHT22;8373;48.110;11.522;2023-07-08T05:14:00;21.50;56.70
16521;DHT22;8373;48.110;11.522;2023-07-08T05:16:27;21.40;56.40
16521;DHT22;8373;48.110;11.522;2023-07-08T05:18:56;21.30;56.60
16521;DHT22;8373;48.110;11.522;2023-07-08T05:21:23;21.30;56.90
16521;DHT22;8373;48.110;11.522;2023-07-08T05:23:53;21.50;57.00
16521;DHT22;8373;48.110;11.522;2023-07-08T05:26:20;21.50;57.00
16521;DHT22;8373;48.110;11.522;2023-07-08T05:28:47;21.40;56.80
16521;DHT22;8373;48.110;11.522;2023-07-08T05:31:15;21.60;57.00
16521;DHT22;8373;48.110;11.522;2023-07-08T05:33:42;21.60;56.60
16521;DHT22;8373;48.110;11.522;2023-07-08T05:36:11;21.70;56.70
16521;DHT22;8373;48.110;11.522;2023-07-08T05:38:38;21.80;56.40
16521;DHT22;8373;48.110;11.522;2023-07-08T05:41:05;22.00;55.90
16521;DHT22;8373;48.110;11.522;2023-07-08T05:43:32;22.00;56.10
16521;DHT22;8373;48.110;11.522;2023-07-08T05:46:00;21.80;56.20
16521;DHT22;8373;48.110;11.522;2023-07-08T05:48:27;22.00;56.20
16521;DHT22;8373;48.110;11.522;2023-07-08T05:50:55;22.20;55.60
16521;DHT22;8373;48.110;11.522;2023-07-08T05:53:23;22.20;55.20
16521;DHT22;8373;48.110;11.522;2023-07-08T05:55:50;22.20;55.40
16521;DHT22;8373;48.110;11.522;2023-07-08T05:58:17;22.30;55.40
16521;DHT22;8373;48.110;11.522;2023-07-08T06:00:45;22.30;55.50
16521;DHT22;8373;48.110;11.522;2023-07-08T06:03:12;22.00;55.80
16521;DHT22;8373;48.110;11.522;2023-07-08T06:05:39;22.10;56.60
16521;DHT22;8373;48.110;11.522;2023-07-08T06:08:07;22.30;55.50
16521;DHT22;8373;48.110;11.522;2023-07-08T06:10:41;22.20;56.00
16521;DHT22;8373;48.110;11.522;2023-07-08T06:13:09;21.90;55.80
16521;DHT22;8373;48.110;11.522;2023-07-08T06:15:36;22.10;55.70
16521;DHT22;8373;48.110;11.522;2023-07-08T06:18:04;22.40;55.30
16521;DHT22;8373;48.110;11.522;2023-07-08T06:20:31;22.60;54.60
16521;DHT22;8373;48.110;11.522;2023-07-08T06:22:58;22.60;54.40
16521;DHT22;8373;48.110;11.522;2023-07-08T06:25:27;22.70;54.30
16521;DHT22;8373;48.110;11.522;2023-07-08T06:27:55;22.80;54.20
16521;DHT22;8373;48.110;11.522;2023-07-08T06:30:23;23.00;53.70
16521;DHT22;8373;48.110;11.522;2023-07-08T06:32:50;23.00;53.80
16521;DHT22;8373;48.110;11.522;2023-07-08T06:35:17;23.10;53.40
16521;DHT22;8373;48.110;11.522;2023-07-08T06:37:44;23.20;53.60
16521;DHT22;8373;48.110;11.522;2023-07-08T06:40:11;23.30;53.30
16521;DHT22;8373;48.110;11.522;2023-07-08T06:42:39;23.20;52.80
16521;DHT22;8373;48.110;11.522;2023-07-08T06:45:08;22.40;53.40
16521;DHT22;8373;48.110;11.522;2023-07-08T06:47:38;22.20;54.20
16521;DHT22;8373;48.110;11.522;2023-07-08T06:50:06;22.60;54.50
16521;DHT22;8373;48.110;11.522;2023-07-08T06:52:33;23.00;54.20
16521;DHT22;8373;48.110;11.522;2023-07-08T06:55:04;22.70;53.80
16521;DHT22;8373;48.110;11.522;2023-07-08T06:57:31;22.60;54.40
16521;DHT22;8373;48.110;11.522;2023-07-08T06:59:58;22.60;54.20
16521;DHT22;8373;48.110;11.522;2023-07-08T07:02:27;22.10;54.80
16521;DHT22;8373;48.110;11.522;2023-07-08T07:04:54;22.30;55.20
16521;DHT22;8373;48.110;11.522;2023-07-08T07:07:21;22.30;54.70
16521;DHT22;8373;48.110;11.522;2023-07-08T07:09:48;22.70;54.80
16521;DHT22;8373;48.110;11.522;2023-07-08T07:12:15;23.00;55.20
16521;DHT22;8373;48.110;11.522;2023-07-08T07:14:42;22.90;54.80
16521;DHT22;8373;48.110;11.522;2023-07-08T07:17:09;23.20;54.80
16521;DHT22;8373;48.110;11.522;2023-07-08T07:19:38;23.50;54.70
16521;DHT22;8373;48.110;11.522;2023-07-08T07:22:05;23.80;54.50
16521;DHT22;8373;48.110;11.522;2023-07-08T07:24:33;23.80;54.50
16521;DHT22;8373;48.110;11.522;2023-07-08T07:27:00;23.90;54.60
16521;DHT22;8373;48.110;11.522;2023-07-08T07:29:27;24.00;55.10
16521;DHT22;8373;48.110;11.522;2023-07-08T07:31:54;24.00;55.10
16521;DHT22;8373;48.110;11.522;2023-07-08T07:34:21;23.90;54.90
16521;DHT22;8373;48.110;11.522;2023-07-08T07:36:50;23.60;54.80
16521;DHT22;8373;48.110;11.522;2023-07-08T07:39:17;23.60;55.00
16521;DHT22;8373;48.110;11.522;2023-07-08T07:41:44;23.70;54.80
16521;DHT22;8373;48.110;11.522;2023-07-08T07:44:11;23.50;55.10
16521;DHT22;8373;48.110;11.522;2023-07-08T07:46:37;23.60;55.60
16521;DHT22;8373;48.110;11.522;2023-07-08T07:49:04;23.50;55.60
16521;DHT22;8373;48.110;11.522;2023-07-08T07:51:31;23.50;56.60
16521;DHT22;8373;48.110;11.522;2023-07-08T07:54:00;23.80;56.70
16521;DHT22;8373;48.110;11.522;2023-07-08T07:56:27;23.80;56.70
16521;DHT22;8373;48.110;11.522;2023-07-08T07:58:53;23.90;56.30
16521;DHT22;8373;48.110;11.522;2023-07-08T08:01:21;24.00;56.40
16521;DHT22;8373;48.110;11.522;2023-07-08T08:03:48;23.90;57.00
16521;DHT22;8373;48.110;11.522;2023-07-08T08:06:16;23.70;57.40
16521;DHT22;8373;48.110;11.522;2023-07-08T08:08:44;23.90;57.20
16521;DHT22;8373;48.110;11.522;2023-07-08T08:11:12;23.80;57.00
16521;DHT22;8373;48.110;11.522;2023-07-08T08:13:39;23.90;57.00
16521;DHT22;8373;48.110;11.522;2023-07-08T08:16:06;24.00;57.20
16521;DHT22;8373;48.110;11.522;2023-07-08T08:18:33;24.00;57.00
16521;DHT22;8373;48.110;11.522;2023-07-08T08:21:00;24.20;57.20
16521;DHT22;8373;48.110;11.522;2023-07-08T08:23:27;24.50;56.80
16521;DHT22;8373;48.110;11.522;2023-07-08T08:25:54;24.40;57.00
16521;DHT22;8373;48.110;11.522;2023-07-08T08:28:22;24.50;56.70
16521;DHT22;8373;48.110;11.522;2023-07-08T08:30:50;24.60;56.60
16521;DHT22;8373;48.110;11.522;2023-07-08T08:33:18;24.50;56.70
16521;DHT22;8373;48.110;11.522;2023-07-08T08:35:45;24.50;56.60
16521;DHT22;8373;48.110;11.522;2023-07-08T08:38:13;24.80;56.10
16521;DHT22;8373;48.110;11.522;2023-07-08T08:40:40;24.80;56.10
16521;DHT22;8373;48.110;11.522;2023-07-08T08:43:12;24.90;55.50
16521;DHT22;8373;48.110;11.522;2023-07-08T08:45:45;24.90;55.00
16521;DHT22;8373;48.110;11.522;2023-07-08T08:48:15;25.10;55.30
16521;DHT22;8373;48.110;11.522;2023-07-08T08:50:50;25.30;54.60
16521;DHT22;8373;48.110;11.522;2023-07-08T08:53:19;25.40;53.60
16521;DHT22;8373;48.110;11.522;2023-07-08T08:55:54;25.50;53.80
16521;DHT22;8373;48.110;11.522;2023-07-08T08:58:37;25.00;53.10
16521;DHT22;8373;48.110;11.522;2023-07-08T09:01:10;25.00;53.60
16521;DHT22;8373;48.110;11.522;2023-07-08T09:03:43;25.10;53.60
16521;DHT22;8373;48.110;11.522;2023-07-08T09:06:14;25.10;53.00
16521;DHT22;8373;48.110;11.522;2023-07-08T09:08:42;25.30;52.30
16521;DHT22;8373;48.110;11.522;2023-07-08T09:11:30;25.40;52.50
16521;DHT22;8373;48.110;11.522;2023-07-08T09:14:02;25.60;52.00
16521;DHT22;8373;48.110;11.522;2023-07-08T09:16:39;25.50;51.80
16521;DHT22;8373;48.110;11.522;2023-07-08T09:19:10;25.60;52.20
16521;DHT22;8373;48.110;11.522;2023-07-08T09:21:46;25.60;51.80
16521;DHT22;8373;48.110;11.522;2023-07-08T09:24:18;25.40;51.60
16521;DHT22;8373;48.110;11.522;2023-07-08T09:26:49;25.70;51.90
16521;DHT22;8373;48.110;11.522;2023-07-08T09:29:18;25.90;51.40
16521;DHT22;8373;48.110;11.522;2023-07-08T09:31:46;25.90;51.40
16521;DHT22;8373;48.110;11.522;2023-07-08T09:34:15;26.00;51.20
16521;DHT22;8373;48.110;11.522;2023-07-08T09:36:45;25.80;50.80
16521;DHT22;8373;48.110;11.522;2023-07-08T09:39:14;26.00;51.00
16521;DHT22;8373;48.110;11.522;2023-07-08T09:41:43;26.20;51.10
16521;DHT22;8373;48.110;11.522;2023-07-08T09:44:16;26.00;50.50
16521;DHT22;8373;48.110;11.522;2023-07-08T09:46:44;26.00;50.40
16521;DHT22;8373;48.110;11.522;2023-07-08T09:49:22;26.00;50.60
16521;DHT22;8373;48.110;11.522;2023-07-08T09:51:51;26.20;50.20
16521;DHT22;8373;48.110;11.522;2023-07-08T09:54:19;26.20;49.10
16521;DHT22;8373;48.110;11.522;2023-07-08T09:57:00;26.10;48.90
16521;DHT22;8373;48.110;11.522;2023-07-08T09:59:31;26.30;49.60
16521;DHT22;8373;48.110;11.522;2023-07-08T10:02:03;26.30;49.80
16521;DHT22;8373;48.110;11.522;2023-07-08T10:04:31;26.50;49.30
16521;DHT22;8373;48.110;11.522;2023-07-08T10:06:59;26.60;49.60
16521;DHT22;8373;48.110;11.522;2023-07-08T10:09:26;26.60;49.00
16521;DHT22;8373;48.110;11.522;2023-07-08T10:11:59;26.50;48.20
16521;DHT22;8373;48.110;11.522;2023-07-08T10:14:30;26.70;48.20
16521;DHT22;8373;48.110;11.522;2023-07-08T10:17:00;26.90;47.80
16521;DHT22;8373;48.110;11.522;2023-07-08T10:19:27;26.70;47.80
16521;DHT22;8373;48.110;11.522;2023-07-08T10:22:05;26.60;48.00
16521;DHT22;8373;48.110;11.522;2023-07-08T10:24:47;26.70;48.20
16521;DHT22;8373;48.110;11.522;2023-07-08T10:27:23;27.10;47.80
16521;DHT22;8373;48.110;11.522;2023-07-08T10:29:58;27.10;47.30
16521;DHT22;8373;48.110;11.522;2023-07-08T10:32:40;27.10;47.30
16521;DHT22;8373;48.110;11.522;2023-07-08T10:35:16;26.90;47.20
16521;DHT22;8373;48.110;11.522;2023-07-08T10:38:06;27.00;48.10
16521;DHT22;8373;48.110;11.522;2023-07-08T10:40:43;27.20;47.20
16521;DHT22;8373;48.110;11.522;2023-07-08T10:43:23;27.40;46.30
16521;DHT22;8373;48.110;11.522;2023-07-08T10:46:00;27.30;47.40
16521;DHT22;8373;48.110;11.522;2023-07-08T10:48:48;27.50;46.90
16521;DHT22;8373;48.110;11.522;2023-07-08T10:51:26;27.50;47.10
16521;DHT22;8373;48.110;11.522;2023-07-08T10:54:19;27.70;46.70
16521;DHT22;8373;48.110;11.522;2023-07-08T10:56:55;27.50;46.50
16521;DHT22;8373;48.110;11.522;2023-07-08T10:59:43;27.40;46.20
16521;DHT22;8373;48.110;11.522;2023-07-08T11:02:23;27.70;45.60
16521;DHT22;8373;48.110;11.522;2023-07-08T11:05:01;27.70;45.70
16521;DHT22;8373;48.110;11.522;2023-07-08T11:07:39;27.70;45.30
16521;DHT22;8373;48.110;11.522;2023-07-08T11:10:15;27.80;45.20
16521;DHT22;8373;48.110;11.522;2023-07-08T11:12:46;28.00;44.80
16521;DHT22;8373;48.110;11.522;2023-07-08T11:15:18;28.00;44.40
16521;DHT22;8373;48.110;11.522;2023-07-08T11:17:52;28.10;44.00
16521;DHT22;8373;48.110;11.522;2023-07-08T11:20:26;27.90;44.80
16521;DHT22;8373;48.110;11.522;2023-07-08T11:23:00;27.90;45.00
16521;DHT22;8373;48.110;11.522;2023-07-08T11:25:31;28.20;45.00
16521;DHT22;8373;48.110;11.522;2023-07-08T11:28:02;28.20;44.50
16521;DHT22;8373;48.110;11.522;2023-07-08T11:30:32;28.30;43.80
16521;DHT22;8373;48.110;11.522;2023-07-08T11:33:10;28.40;43.50
16521;DHT22;8373;48.110;11.522;2023-07-08T11:35:43;28.50;44.50
16521;DHT22;8373;48.110;11.522;2023-07-08T11:38:13;28.60;44.60
16521;DHT22;8373;48.110;11.522;2023-07-08T11:40:57;28.60;43.60
16521;DHT22;8373;48.110;11.522;2023-07-08T11:43:28;28.40;44.40
16521;DHT22;8373;48.110;11.522;2023-07-08T11:46:04;28.60;43.80
16521;DHT22;8373;48.110;11.522;2023-07-08T11:48:37;28.60;44.50
16521;DHT22;8373;48.110;11.522;2023-07-08T11:51:06;28.70;45.20
16521;DHT22;8373;48.110;11.522;2023-07-08T11:53:38;28.70;43.90
16521;DHT22;8373;48.110;11.522;2023-07-08T11:56:25;28.70;44.30
16521;DHT22;8373;48.110;11.522;2023-07-08T11:58:59;29.00;43.70
16521;DHT22;8373;48.110;11.522;2023-07-08T12:01:38;29.10;44.00
16521;DHT22;8373;48.110;11.522;2023-07-08T12:04:33;29.50;41.50
16521;DHT22;8373;48.110;11.522;2023-07-08T12:07:11;29.60;40.60
16521;DHT22;8373;48.110;11.522;2023-07-08T12:09:45;29.60;41.20
16521;DHT22;8373;48.110;11.522;2023-07-08T12:12:21;29.20;41.10
16521;DHT22;8373;48.110;11.522;2023-07-08T12:14:48;29.50;41.40
16521;DHT22;8373;48.110;11.522;2023-07-08T12:17:16;29.70;41.00
16521;DHT22;8373;48.110;11.522;2023-07-08T12:19:44;29.30;41.80
16521;DHT22;8373;48.110;11.522;2023-07-08T12:22:14;29.50;40.90
16521;DHT22;8373;48.110;11.522;2023-07-08T12:24:41;29.50;41.10
16521;DHT22;8373;48.110;11.522;2023-07-08T12:27:11;29.80;39.90
16521;DHT22;8373;48.110;11.522;2023-07-08T12:29:39;29.50;40.50
16521;DHT22;8373;48.110;11.522;2023-07-08T12:32:10;29.80;40.50
16521;DHT22;8373;48.110;11.522;2023-07-08T12:34:39;30.10;39.50
16521;DHT22;8373;48.110;11.522;2023-07-08T12:37:11;30.20;39.40
16521;DHT22;8373;48.110;11.522;2023-07-08T12:39:40;30.40;40.50
16521;DHT22;8373;48.110;11.522;2023-07-08T12:42:11;30.70;40.50
16521;DHT22;8373;48.110;11.522;2023-07-08T12:44:42;30.80;39.40
16521;DHT22;8373;48.110;11.522;2023-07-08T12:47:10;30.90;38.60
16521;DHT22;8373;48.110;11.522;2023-07-08T12:49:37;30.90;37.90
16521;DHT22;8373;48.110;11.522;2023-07-08T12:52:05;31.10;38.20
16521;DHT22;8373;48.110;11.522;2023-07-08T12:54:32;30.90;39.20
16521;DHT22;8373;48.110;11.522;2023-07-08T12:57:00;31.10;38.80
16521;DHT22;8373;48.110;11.522;2023-07-08T12:59:28;31.30;38.00
16521;DHT22;8373;48.110;11.522;2023-07-08T13:01:57;31.40;35.90
16521;DHT22;8373;48.110;11.522;2023-07-08T13:04:25;31.20;34.20
16521;DHT22;8373;48.110;11.522;2023-07-08T13:06:54;31.30;33.50
16521;DHT22;8373;48.110;11.522;2023-07-08T13:09:35;31.10;33.70
16521;DHT22;8373;48.110;11.522;2023-07-08T13:12:13;31.10;34.30
16521;DHT22;8373;48.110;11.522;2023-07-08T13:14:43;31.00;34.40
16521;DHT22;8373;48.110;11.522;2023-07-08T13:17:13;30.90;32.60
16521;DHT22;8373;48.110;11.522;2023-07-08T13:19:42;31.00;32.30
16521;DHT22;8373;48.110;11.522;2023-07-08T13:22:14;31.10;31.90
16521;DHT22;8373;48.110;11.522;2023-07-08T13:24:43;31.00;32.40
16521;DHT22;8373;48.110;11.522;2023-07-08T13:27:20;31.00;33.50
16521;DHT22;8373;48.110;11.522;2023-07-08T13:29:52;31.10;32.50
16521;DHT22;8373;48.110;11.522;2023-07-08T13:32:29;31.00;34.70
16521;DHT22;8373;48.110;11.522;2023-07-08T13:34:57;30.70;39.50
16521;DHT22;8373;48.110;11.522;2023-07-08T13:37:24;30.50;40.10
16521;DHT22;8373;48.110;11.522;2023-07-08T13:39:53;30.50;38.60
16521;DHT22;8373;48.110;11.522;2023-07-08T13:42:20;30.10;43.70
16521;DHT22;8373;48.110;11.522;2023-07-08T13:44:49;30.20;38.50
16521;DHT22;8373;48.110;11.522;2023-07-08T13:47:23;29.90;43.80
16521;DHT22;8373;48.110;11.522;2023-07-08T13:49:58;29.90;40.20
16521;DHT22;8373;48.110;11.522;2023-07-08T13:52:27;29.80;45.80
16521;DHT22;8373;48.110;11.522;2023-07-08T13:55:01;29.70;42.70
16521;DHT22;8373;48.110;11.522;2023-07-08T13:57:32;29.50;44.20
16521;DHT22;8373;48.110;11.522;2023-07-08T14:00:00;29.60;43.20
16521;DHT22;8373;48.110;11.522;2023-07-08T14:02:30;29.50;44.00
16521;DHT22;8373;48.110;11.522;2023-07-08T14:05:01;29.60;38.40
16521;DHT22;8373;48.110;11.522;2023-07-08T14:07:35;29.60;38.10
16521;DHT22;8373;48.110;11.522;2023-07-08T14:10:08;29.50;42.30
16521;DHT22;8373;48.110;11.522;2023-07-08T14:12:36;29.50;36.80
16521;DHT22;8373;48.110;11.522;2023-07-08T14:15:04;29.50;38.50
16521;DHT22;8373;48.110;11.522;2023-07-08T14:17:33;29.50;37.30
16521;DHT22;8373;48.110;11.522;2023-07-08T14:20:01;29.40;34.80
16521;DHT22;8373;48.110;11.522;2023-07-08T14:22:30;29.30;37.20
16521;DHT22;8373;48.110;11.522;2023-07-08T14:25:01;29.10;37.00
16521;DHT22;8373;48.110;11.522;2023-07-08T14:27:31;28.80;40.00
16521;DHT22;8373;48.110;11.522;2023-07-08T14:29:58;28.60;42.70
16521;DHT22;8373;48.110;11.522;2023-07-08T14:32:28;28.40;46.60
16521;DHT22;8373;48.110;11.522;2023-07-08T14:34:59;28.20;46.20
16521;DHT22;8373;48.110;11.522;2023-07-08T14:37:29;28.00;47.10
16521;DHT22;8373;48.110;11.522;2023-07-08T14:39:57;28.20;38.80
16521;DHT22;8373;48.110;11.522;2023-07-08T14:42:25;28.00;44.00
16521;DHT22;8373;48.110;11.522;2023-07-08T14:44:53;27.90;48.60
16521;DHT22;8373;48.110;11.522;2023-07-08T14:47:21;27.80;48.40
16521;DHT22;8373;48.110;11.522;2023-07-08T14:49:49;27.70;45.90
16521;DHT22;8373;48.110;11.522;2023-07-08T14:52:18;27.60;43.50
16521;DHT22;8373;48.110;11.522;2023-07-08T14:54:45;27.70;42.00
16521;DHT22;8373;48.110;11.522;2023-07-08T14:57:15;27.80;41.50
16521;DHT22;8373;48.110;11.522;2023-07-08T14:59:43;27.80;44.10
16521;DHT22;8373;48.110;11.522;2023-07-08T15:02:19;27.70;43.90
16521;DHT22;8373;48.110;11.522;2023-07-08T15:04:47;27.70;45.60
16521;DHT22;8373;48.110;11.522;2023-07-08T15:07:15;27.60;49.60
16521;DHT22;8373;48.110;11.522;2023-07-08T15:09:44;27.60;50.10
16521;DHT22;8373;48.110;11.522;2023-07-08T15:12:12;27.60;50.70
16521;DHT22;8373;48.110;11.522;2023-07-08T15:14:41;27.60;50.70
16521;DHT22;8373;48.110;11.522;2023-07-08T15:17:15;27.80;46.60
16521;DHT22;8373;48.110;11.522;2023-07-08T15:19:45;27.80;49.50
16521;DHT22;8373;48.110;11.522;2023-07-08T15:22:16;27.80;45.60
16521;DHT22;8373;48.110;11.522;2023-07-08T15:24:47;27.90;43.60
16521;DHT22;8373;48.110;11.522;2023-07-08T15:27:19;28.00;40.60
16521;DHT22;8373;48.110;11.522;2023-07-08T15:29:50;28.10;42.00
16521;DHT22;8373;48.110;11.522;2023-07-08T15:32:18;28.10;41.10
16521;DHT22;8373;48.110;11.522;2023-07-08T15:34:48;28.10;40.80
16521;DHT22;8373;48.110;11.522;2023-07-08T15:37:16;28.10;40.10
16521;DHT22;8373;48.110;11.522;2023-07-08T15:39:43;28.10;42.00
16521;DHT22;8373;48.110;11.522;2023-07-08T15:42:23;28.20;40.60
16521;DHT22;8373;48.110;11.522;2023-07-08T15:44:52;28.20;42.20
16521;DHT22;8373;48.110;11.522;2023-07-08T15:47:23;28.20;45.10